createdAt,value
2018-09-26T00:02:04.994Z,78.28
2018-09-26T00:04:34.785Z,78.44
2018-09-26T00:07:03.120Z,78.60
2018-09-26T00:09:31.595Z,78.58
2018-09-26T00:12:00.229Z,78.16
2018-09-26T00:14:28.456Z,78.29
2018-09-26T00:16:57.228Z,77.74
2018-09-26T00:19:25.943Z,78.17
2018-09-26T00:21:54.615Z,78.05
2018-09-26T00:24:23.069Z,77.94
2018-09-26T00:26:59.104Z,77.50
2018-09-26T00:29:30.116Z,77.57
2018-09-26T00:31:58.590Z,77.31
2018-09-26T00:34:26.944Z,77.51
2018-09-26T00:36:55.609Z,77.28
2018-09-26T00:39:30.585Z,77.83
2018-09-26T00:41:59.271Z,78.28
2018-09-26T00:44:27.781Z,77.86
2018-09-26T00:46:55.910Z,77.71
2018-09-26T00:49:24.188Z,77.47
2018-09-26T00:51:52.634Z,78.47
2018-09-26T00:54:21.944Z,77.85
2018-09-26T00:56:50.500Z,78.26
2018-09-26T00:59:18.917Z,78.36
2018-09-26T01:01:47.381Z,78.15
2018-09-26T01:04:16.308Z,77.96
2018-09-26T01:06:44.768Z,78.15
2018-09-26T01:09:13.593Z,78.33
2018-09-26T01:11:42.356Z,77.63
2018-09-26T01:14:10.772Z,77.75
2018-09-26T01:16:39.007Z,77.91
2018-09-26T01:19:08.580Z,78.62
2018-09-26T01:21:37.356Z,78.23
2018-09-26T01:24:05.493Z,77.31
2018-09-26T01:26:34.289Z,76.73
2018-09-26T01:29:02.493Z,77.00
2018-09-26T01:31:31.571Z,76.89
2018-09-26T01:34:00.216Z,76.76
2018-09-26T01:36:28.677Z,76.96
2018-09-26T01:38:57.368Z,76.82
2018-09-26T01:41:25.529Z,76.11
2018-09-26T01:43:53.981Z,76.03
2018-09-26T01:46:22.609Z,75.10
2018-09-26T01:48:51.023Z,74.49
2018-09-26T01:51:20.025Z,74.52
2018-09-26T01:53:48.727Z,75.24
2018-09-26T01:56:17.317Z,74.20
2018-09-26T01:58:45.443Z,74.58
2018-09-26T02:01:14.493Z,74.69
2018-09-26T02:03:42.621Z,74.95
2018-09-26T02:06:11.052Z,75.22
2018-09-26T02:08:39.180Z,75.82
2018-09-26T02:11:08.454Z,75.83
2018-09-26T02:13:36.908Z,75.13
2018-09-26T02:16:05.248Z,74.92
2018-09-26T02:18:33.367Z,74.67
2018-09-26T02:21:01.503Z,74.42
2018-09-26T02:23:30.503Z,75.29
2018-09-26T02:25:59.121Z,74.64
2018-09-26T02:28:27.580Z,74.93
2018-09-26T02:30:55.733Z,74.81
2018-09-26T02:33:24.634Z,74.29
2018-09-26T02:35:53.336Z,74.32
2018-09-26T02:38:21.989Z,74.25
2018-09-26T02:40:50.258Z,74.36
2018-09-26T02:43:18.547Z,74.20
2018-09-26T02:45:47.030Z,74.31
2018-09-26T02:49:18.343Z,74.48
2018-09-26T02:51:46.509Z,75.29
2018-09-26T02:54:15.181Z,75.07
2018-09-26T02:56:43.554Z,74.83
2018-09-26T02:59:12.248Z,74.59
2018-09-26T03:01:40.411Z,74.16
2018-09-26T03:04:08.661Z,75.20
2018-09-26T03:06:37.293Z,75.04
2018-09-26T03:09:06.516Z,74.80
2018-09-26T03:11:35.434Z,75.10
2018-09-26T03:14:03.801Z,75.03
2018-09-26T03:16:32.581Z,74.80
2018-09-26T03:19:01.129Z,75.58
2018-09-26T03:21:29.640Z,75.02
2018-09-26T03:23:58.340Z,75.31
2018-09-26T03:26:26.865Z,75.92
2018-09-26T03:28:55.265Z,75.56
2018-09-26T03:31:24.200Z,75.44
2018-09-26T03:33:52.428Z,75.63
2018-09-26T03:36:21.207Z,74.97
2018-09-26T03:38:49.372Z,75.11
2018-09-26T03:41:17.708Z,75.83
2018-09-26T03:43:46.124Z,75.47
2018-09-26T03:46:14.477Z,75.18
2018-09-26T03:48:42.969Z,75.45
2018-09-26T03:51:11.410Z,75.76
2018-09-26T03:53:39.884Z,75.87
2018-09-26T03:56:09.052Z,75.37
2018-09-26T03:58:37.390Z,74.84
2018-09-26T04:01:05.865Z,74.80
2018-09-26T04:03:34.620Z,74.59
2018-09-26T04:06:02.758Z,74.74
2018-09-26T04:08:31.209Z,75.42
2018-09-26T04:10:59.356Z,75.49
2018-09-26T04:13:27.761Z,74.96
2018-09-26T04:15:56.468Z,74.90
2018-09-26T04:18:26.188Z,74.74
2018-09-26T04:20:55.449Z,75.62
2018-09-26T04:23:24.414Z,75.22
2018-09-26T04:25:52.764Z,74.99
2018-09-26T04:28:21.828Z,74.89
2018-09-26T04:30:50.344Z,75.01
2018-09-26T04:33:18.848Z,75.10
2018-09-26T04:35:47.308Z,75.13
2018-09-26T04:38:15.649Z,75.08
2018-09-26T04:40:44.537Z,74.76
2018-09-26T04:43:13.040Z,74.62
2018-09-26T04:45:41.529Z,74.99
2018-09-26T04:48:09.820Z,74.47
2018-09-26T04:50:37.991Z,74.30
2018-09-26T04:53:06.701Z,74.49
2018-09-26T04:55:35.171Z,74.19
2018-09-26T04:58:04.292Z,74.97
2018-09-26T05:00:32.528Z,74.89
2018-09-26T05:03:01.012Z,75.00
2018-09-26T05:05:29.804Z,74.98
2018-09-26T05:07:59.200Z,74.62
2018-09-26T05:10:27.885Z,74.88
2018-09-26T05:12:56.374Z,74.71
2018-09-26T05:15:24.768Z,74.92
2018-09-26T05:17:52.935Z,74.86
2018-09-26T05:20:21.685Z,74.43
2018-09-26T05:22:49.887Z,74.47
2018-09-26T05:25:18.144Z,74.69
2018-09-26T05:27:46.959Z,74.81
2018-09-26T05:30:15.932Z,75.04
2018-09-26T05:32:44.711Z,75.49
2018-09-26T05:35:13.161Z,75.32
2018-09-26T05:37:41.925Z,75.47
2018-09-26T05:40:10.345Z,75.45
2018-09-26T05:42:38.597Z,75.55
2018-09-26T05:45:06.740Z,76.00
2018-09-26T05:47:35.209Z,75.87
2018-09-26T05:50:03.566Z,75.57
2018-09-26T05:52:32.232Z,75.24
2018-09-26T05:55:01.064Z,75.79
2018-09-26T05:57:29.220Z,75.26
2018-09-26T05:59:57.704Z,75.59
2018-09-26T06:02:26.504Z,75.91
2018-09-26T06:04:55.262Z,75.42
2018-09-26T06:07:24.015Z,75.42
2018-09-26T06:09:52.481Z,75.67
2018-09-26T06:12:21.169Z,75.25
2018-09-26T06:14:49.589Z,75.29
2018-09-26T06:17:18.205Z,75.09
2018-09-26T06:19:46.679Z,75.11
2018-09-26T06:22:14.813Z,75.23
2018-09-26T06:24:43.347Z,74.75
2018-09-26T06:27:11.889Z,74.11
2018-09-26T06:29:40.092Z,74.17
2018-09-26T06:32:09.076Z,74.16
2018-09-26T06:34:37.773Z,73.33
2018-09-26T06:37:06.176Z,73.53
2018-09-26T06:39:34.333Z,72.77
2018-09-26T06:42:03.104Z,72.86
2018-09-26T06:44:31.630Z,72.37
2018-09-26T06:47:00.125Z,72.16
2018-09-26T06:49:28.692Z,72.17
2018-09-26T06:51:57.082Z,71.21
2018-09-26T06:54:25.573Z,71.55
2018-09-26T06:56:54.104Z,72.48
2018-09-26T06:59:22.601Z,70.66
2018-09-26T07:01:50.724Z,70.47
2018-09-26T07:04:18.961Z,70.73
2018-09-26T07:06:47.122Z,69.87
2018-09-26T07:09:15.595Z,69.70
2018-09-26T07:11:43.933Z,69.35
2018-09-26T07:14:12.074Z,69.60
2018-09-26T07:16:40.577Z,69.47
2018-09-26T07:19:09.581Z,68.72
2018-09-26T07:21:37.919Z,68.00
2018-09-26T07:24:06.696Z,68.59
2018-09-26T07:26:35.360Z,67.90
2018-09-26T07:29:04.041Z,67.38
2018-09-26T07:31:32.563Z,66.78
2018-09-26T07:34:01.051Z,67.60
2018-09-26T07:36:29.224Z,67.27
2018-09-26T07:38:57.657Z,66.50
2018-09-26T07:41:26.085Z,66.35
2018-09-26T07:43:54.552Z,66.17
2018-09-26T07:46:23.166Z,66.03
2018-09-26T07:48:53.384Z,66.34
2018-09-26T07:51:22.201Z,66.14
2018-09-26T07:53:51.477Z,65.94
2018-09-26T07:56:19.863Z,64.24
2018-09-26T07:58:48.205Z,62.79
2018-09-26T08:01:16.658Z,63.63
2018-09-26T08:03:45.377Z,64.42
2018-09-26T08:06:14.137Z,61.30
2018-09-26T08:08:42.276Z,60.85
2018-09-26T08:11:11.030Z,60.48
2018-09-26T08:13:39.703Z,60.12
2018-09-26T08:16:09.756Z,61.54
2018-09-26T08:18:38.053Z,61.23
2018-09-26T08:21:06.873Z,60.89
2018-09-26T08:23:35.040Z,59.73
2018-09-26T08:26:03.161Z,60.16
2018-09-26T08:28:31.338Z,59.08
2018-09-26T08:31:00.013Z,59.42
2018-09-26T08:33:28.316Z,60.23
2018-09-26T08:35:57.041Z,57.81
2018-09-26T08:38:25.224Z,58.53
2018-09-26T08:40:53.645Z,57.93
2018-09-26T08:43:22.884Z,58.24
2018-09-26T08:45:51.566Z,57.43
2018-09-26T08:48:20.181Z,57.90
2018-09-26T08:50:48.365Z,58.76
2018-09-26T08:53:16.841Z,58.04
2018-09-26T08:55:45.309Z,57.86
2018-09-26T08:58:13.457Z,58.27
2018-09-26T09:00:41.633Z,58.12
2018-09-26T09:03:10.436Z,58.28
2018-09-26T09:05:39.661Z,57.58
2018-09-26T09:08:09.779Z,58.38
2018-09-26T09:10:38.576Z,57.29
2018-09-26T09:13:07.355Z,57.94
2018-09-26T09:27:43.626Z,56.91
2018-09-26T09:30:11.932Z,57.52
2018-09-26T09:32:40.076Z,57.55
2018-09-26T09:35:08.515Z,57.47
2018-09-26T09:37:36.860Z,55.52
2018-09-26T09:40:05.871Z,55.14
2018-09-26T09:42:34.803Z,56.39
2018-09-26T09:45:03.453Z,55.34
2018-09-26T09:47:31.818Z,54.53
2018-09-26T09:50:00.322Z,54.44
2018-09-26T09:52:28.673Z,54.66
2018-09-26T09:54:57.175Z,54.62
2018-09-26T09:57:25.659Z,53.54
2018-09-26T09:59:54.136Z,54.49
2018-09-26T10:02:22.649Z,53.87
2018-09-26T10:04:53.200Z,54.36
2018-09-26T10:07:21.972Z,54.03
2018-09-26T10:09:50.416Z,53.24
2018-09-26T10:12:18.980Z,54.88
2018-09-26T10:14:47.100Z,54.22
2018-09-26T10:17:16.276Z,54.40
2018-09-26T10:19:46.012Z,54.51
2018-09-26T10:22:15.856Z,54.60
2018-09-26T10:24:44.220Z,55.25
2018-09-26T10:27:12.665Z,53.79
2018-09-26T10:29:41.408Z,53.36
2018-09-26T10:32:10.187Z,52.37
2018-09-26T10:34:39.065Z,53.37
2018-09-26T10:37:07.445Z,52.58
2018-09-26T10:39:35.999Z,53.21
2018-09-26T10:42:04.735Z,53.03
2018-09-26T10:44:33.745Z,51.97
2018-09-26T10:47:02.212Z,52.80
2018-09-26T10:49:30.632Z,51.35
2018-09-26T10:51:59.293Z,50.52
2018-09-26T10:54:27.736Z,50.97
2018-09-26T10:56:56.146Z,51.96
2018-09-26T10:59:24.659Z,50.47
2018-09-26T11:01:53.515Z,50.90
2018-09-26T11:04:22.122Z,49.95
2018-09-26T11:06:52.099Z,50.26
2018-09-26T11:09:20.829Z,50.16
2018-09-26T11:11:49.008Z,50.10
2018-09-26T11:14:17.545Z,49.91
2018-09-26T11:16:45.952Z,49.37
2018-09-26T11:19:14.235Z,49.71
2018-09-26T11:21:42.695Z,50.11
2018-09-26T11:24:10.851Z,49.48
2018-09-26T11:26:39.277Z,49.19
2018-09-26T11:29:07.821Z,47.55
2018-09-26T11:31:35.948Z,47.24
2018-09-26T11:34:04.478Z,47.70
2018-09-26T11:36:32.805Z,48.48
2018-09-26T11:39:01.296Z,48.00
2018-09-26T11:41:29.644Z,47.82
2018-09-26T11:43:58.667Z,49.92
2018-09-26T11:46:27.360Z,51.53
2018-09-26T11:48:56.164Z,48.94
2018-09-26T11:51:24.280Z,46.93
2018-09-26T11:53:52.771Z,47.41
2018-09-26T11:56:21.469Z,48.33
2018-09-26T11:58:50.340Z,48.78
2018-09-26T12:01:19.422Z,48.01
2018-09-26T12:03:47.872Z,47.72
2018-09-26T12:06:16.384Z,49.49
2018-09-26T12:08:45.248Z,48.85
2018-09-26T12:11:13.728Z,48.65
2018-09-26T12:13:42.156Z,47.80
2018-09-26T12:16:10.555Z,47.43
2018-09-26T12:18:39.260Z,47.49
2018-09-26T12:21:08.032Z,47.95
2018-09-26T12:23:36.507Z,48.47
2018-09-26T12:26:04.967Z,48.49
2018-09-26T12:28:33.600Z,47.10
2018-09-26T12:31:01.985Z,47.16
2018-09-26T12:33:30.148Z,46.57
2018-09-26T12:35:58.260Z,46.94
2018-09-26T12:38:26.884Z,47.96
2018-09-26T12:40:55.348Z,48.95
2018-09-26T12:43:23.990Z,47.16
2018-09-26T12:45:52.360Z,45.56
2018-09-26T12:48:20.816Z,46.22
2018-09-26T12:50:49.484Z,46.45
2018-09-26T12:53:18.230Z,47.16
2018-09-26T12:55:46.896Z,44.77
2018-09-26T12:58:15.781Z,45.33
2018-09-26T13:00:44.253Z,44.59
2018-09-26T13:03:12.442Z,45.39
2018-09-26T13:05:40.760Z,46.16
2018-09-26T13:08:09.556Z,46.34
2018-09-26T13:11:01.148Z,46.73
2018-09-26T13:13:29.627Z,46.65
2018-09-26T13:15:58.462Z,45.29
2018-09-26T13:18:26.947Z,45.69
2018-09-26T13:20:55.425Z,47.31
2018-09-26T13:23:24.080Z,45.10
2018-09-26T13:25:53.808Z,45.44
2018-09-26T13:28:22.588Z,45.49
2018-09-26T13:30:51.500Z,45.49
2018-09-26T13:33:20.452Z,46.33
2018-09-26T13:35:48.852Z,46.53
2018-09-26T13:38:17.220Z,47.32
2018-09-26T13:40:45.820Z,45.66
2018-09-26T13:43:14.216Z,44.50
2018-09-26T13:45:42.930Z,45.17
2018-09-26T13:48:11.543Z,44.86
2018-09-26T13:50:40.445Z,46.27
2018-09-26T13:53:08.558Z,45.42
2018-09-26T13:55:36.999Z,46.18
2018-09-26T13:58:05.954Z,46.41
2018-09-26T14:00:34.584Z,45.75
2018-09-26T14:03:03.024Z,46.35
2018-09-26T14:05:31.378Z,45.85
2018-09-26T14:07:59.819Z,45.72
2018-09-26T14:10:28.303Z,45.17
2018-09-26T14:12:56.662Z,45.22
2018-09-26T14:15:25.232Z,45.13
2018-09-26T14:17:53.637Z,45.64
2018-09-26T14:20:38.303Z,46.26
2018-09-26T14:23:06.820Z,45.05
2018-09-26T14:25:35.838Z,45.55
2018-09-26T14:28:04.707Z,45.56
2018-09-26T14:30:33.551Z,44.91
2018-09-26T14:33:02.171Z,45.42
2018-09-26T14:35:30.640Z,44.45
2018-09-26T14:37:58.908Z,44.61
2018-09-26T14:40:27.487Z,44.26
2018-09-26T14:42:56.040Z,43.53
2018-09-26T14:45:24.490Z,44.08
2018-09-26T14:47:52.884Z,44.18
2018-09-26T14:50:21.872Z,45.33
2018-09-26T14:52:50.522Z,44.62
2018-09-26T14:55:19.028Z,45.01
2018-09-26T14:57:47.492Z,45.59
2018-09-26T15:00:15.807Z,46.04
2018-09-26T15:02:44.504Z,46.15
2018-09-26T15:05:12.779Z,46.01
2018-09-26T15:07:41.063Z,45.88
2018-09-26T15:10:09.805Z,46.28
2018-09-26T15:12:38.528Z,46.28
2018-09-26T15:15:07.287Z,45.46
2018-09-26T15:17:35.739Z,44.96
2018-09-26T15:20:04.995Z,44.81
2018-09-26T15:22:33.597Z,45.86
2018-09-26T15:27:35.989Z,45.28
2018-09-26T15:30:04.845Z,46.32
2018-09-26T15:32:33.609Z,46.45
2018-09-26T15:35:02.168Z,46.47
2018-09-26T15:37:30.620Z,46.11
2018-09-26T15:39:58.894Z,45.87
2018-09-26T15:42:27.681Z,46.01
2018-09-26T15:44:56.335Z,46.59
2018-09-26T15:47:24.719Z,47.15
2018-09-26T15:49:53.210Z,46.69
2018-09-26T15:52:21.742Z,46.82
2018-09-26T15:54:50.183Z,47.07
2018-09-26T15:57:18.633Z,45.68
2018-09-26T15:59:47.136Z,45.71
2018-09-26T16:02:15.496Z,46.47
2018-09-26T16:04:44.076Z,46.83
2018-09-26T16:07:12.865Z,47.62
2018-09-26T16:09:41.318Z,47.53
2018-09-26T16:12:10.301Z,47.36
2018-09-26T16:14:38.951Z,47.75
2018-09-26T16:17:07.913Z,48.60
2018-09-26T16:19:36.850Z,47.91
2018-09-26T16:22:05.599Z,47.56
2018-09-26T16:24:34.256Z,48.28
2018-09-26T16:27:02.782Z,48.42
2018-09-26T16:29:31.095Z,48.68
2018-09-26T16:31:59.884Z,48.57
2018-09-26T16:34:28.332Z,49.39
2018-09-26T16:36:57.096Z,49.95
2018-09-26T16:39:25.657Z,49.57
2018-09-26T16:41:54.140Z,49.41
2018-09-26T16:44:22.546Z,49.46
2018-09-26T16:46:51.199Z,49.97
2018-09-26T16:49:19.928Z,50.25
2018-09-26T16:51:48.365Z,50.86
2018-09-26T16:54:17.097Z,50.04
2018-09-26T16:56:45.640Z,50.90
2018-09-26T16:59:14.273Z,51.01
2018-09-26T17:01:42.935Z,50.77
2018-09-26T17:04:11.393Z,51.55
2018-09-26T17:06:39.904Z,51.58
2018-09-26T17:09:11.427Z,51.97
2018-09-26T17:11:39.784Z,52.30
2018-09-26T17:14:08.062Z,51.79
2018-09-26T17:16:36.993Z,51.67
2018-09-26T17:19:05.477Z,51.43
2018-09-26T17:21:33.972Z,52.34
2018-09-26T17:24:02.556Z,51.67
2018-09-26T17:26:30.791Z,51.96
2018-09-26T17:28:59.443Z,52.41
2018-09-26T17:31:27.714Z,52.04
2018-09-26T17:33:56.377Z,52.39
2018-09-26T17:36:25.016Z,51.95
2018-09-26T17:38:53.661Z,52.66
2018-09-26T17:41:21.964Z,52.46
2018-09-26T17:43:50.090Z,52.77
2018-09-26T17:46:21.708Z,52.40
2018-09-26T17:48:52.431Z,52.71
2018-09-26T17:51:21.030Z,52.54
2018-09-26T17:53:49.484Z,52.44
2018-09-26T17:56:17.848Z,52.83
2018-09-26T17:58:45.960Z,53.21
2018-09-26T18:01:14.393Z,52.58
2018-09-26T18:03:43.053Z,52.94
2018-09-26T18:06:11.491Z,52.73
2018-09-26T18:08:40.231Z,52.03
2018-09-26T18:11:08.778Z,52.65
2018-09-26T18:13:36.936Z,53.04
2018-09-26T18:16:05.464Z,52.69
2018-09-26T18:18:33.764Z,52.91
2018-09-26T18:21:02.484Z,52.59
2018-09-26T18:23:30.894Z,53.02
2018-09-26T18:25:59.447Z,53.89
2018-09-26T18:28:27.817Z,53.76
2018-09-26T18:30:56.551Z,53.20
2018-09-26T18:33:24.821Z,53.75
2018-09-26T18:35:53.760Z,54.14
2018-09-26T18:38:21.987Z,54.14
2018-09-26T18:40:50.114Z,53.66
2018-09-26T18:43:19.070Z,54.47
2018-09-26T18:45:47.656Z,54.55
2018-09-26T18:48:16.148Z,54.37
2018-09-26T18:50:44.830Z,54.42
2018-09-26T18:53:13.501Z,54.54
2018-09-26T18:55:42.168Z,54.48
2018-09-26T18:58:10.788Z,54.59
2018-09-26T19:00:39.236Z,54.48
2018-09-26T19:03:08.099Z,54.57
2018-09-26T19:05:36.641Z,54.82
2018-09-26T19:08:05.603Z,54.81
2018-09-26T19:10:33.992Z,54.52
2018-09-26T19:13:02.569Z,54.80
2018-09-26T19:15:31.248Z,54.54
2018-09-26T19:17:59.359Z,54.71
2018-09-26T19:20:28.052Z,55.04
2018-09-26T19:22:56.622Z,55.54
2018-09-26T19:25:25.316Z,55.67
2018-09-26T19:27:53.779Z,55.33
2018-09-26T19:30:22.429Z,55.87
2018-09-26T19:32:51.084Z,56.03
2018-09-26T19:35:19.691Z,56.16
2018-09-26T19:37:48.241Z,55.85
2018-09-26T19:40:16.363Z,55.44
2018-09-26T19:42:44.468Z,55.74
2018-09-26T19:45:13.542Z,55.65
2018-09-26T19:47:41.992Z,55.69
2018-09-26T19:50:10.499Z,55.71
2018-09-26T19:52:38.600Z,55.63
2018-09-26T19:55:07.024Z,55.95
2018-09-26T19:57:35.152Z,55.59
2018-09-26T20:00:03.732Z,55.55
2018-09-26T20:02:32.453Z,56.16
2018-09-26T20:05:00.576Z,55.75
2018-09-26T20:07:29.352Z,55.65
2018-09-26T20:09:57.524Z,55.80
2018-09-26T20:12:26.305Z,55.75
2018-09-26T20:15:34.633Z,56.60
2018-09-26T20:18:07.689Z,56.07
2018-09-26T20:20:37.580Z,56.27
2018-09-26T20:23:06.350Z,55.85
2018-09-26T20:25:35.292Z,56.23
2018-09-26T20:28:03.721Z,55.98
2018-09-26T20:30:32.399Z,56.01
2018-09-26T20:33:01.171Z,56.41
2018-09-26T20:35:29.601Z,56.19
2018-09-26T20:37:58.108Z,56.35
2018-09-26T20:40:26.784Z,56.86
2018-09-26T20:42:55.179Z,56.60
2018-09-26T20:45:24.665Z,56.51
2018-09-26T20:47:53.981Z,57.01
2018-09-26T20:50:22.263Z,57.34
2018-09-26T20:52:51.448Z,56.89
2018-09-26T20:55:19.916Z,57.39
2018-09-26T20:57:48.552Z,56.96
2018-09-26T21:00:17.194Z,56.98
2018-09-26T21:02:45.601Z,56.34
2018-09-26T21:05:14.576Z,57.44
2018-09-26T21:07:42.680Z,56.81
2018-09-26T21:10:11.643Z,57.09
2018-09-26T21:12:40.252Z,57.52
2018-09-26T21:15:08.844Z,57.32
2018-09-26T21:17:37.688Z,57.31
2018-09-26T21:20:06.267Z,57.00
2018-09-26T21:22:34.716Z,57.79
2018-09-26T21:25:03.473Z,57.45
2018-09-26T21:27:31.916Z,57.87
2018-09-26T21:30:00.523Z,58.02
2018-09-26T21:32:28.979Z,57.66
2018-09-26T21:34:57.540Z,57.31
2018-09-26T21:37:25.840Z,58.15
2018-09-26T21:39:54.245Z,57.88
2018-09-26T21:42:22.687Z,57.76
2018-09-26T21:44:50.799Z,58.29
2018-09-26T21:47:19.239Z,58.74
2018-09-26T21:49:47.420Z,58.16
2018-09-26T21:52:15.868Z,58.27
2018-09-26T21:54:44.724Z,58.63
2018-09-26T21:57:13.164Z,58.25
2018-09-26T21:59:41.469Z,58.59
2018-09-26T22:02:10.348Z,58.76
2018-09-26T22:04:38.786Z,58.62
2018-09-26T22:07:06.899Z,58.50
2018-09-26T22:09:35.288Z,58.81
2018-09-26T22:12:04.064Z,59.13
2018-09-26T22:14:32.828Z,58.70
2018-09-26T22:17:01.569Z,59.10
2018-09-26T22:19:29.676Z,58.39
2018-09-26T22:21:58.141Z,59.04
2018-09-26T22:24:26.340Z,59.35
2018-09-26T22:26:55.072Z,58.97
2018-09-26T22:29:23.492Z,59.17
2018-09-26T22:31:51.944Z,59.93
2018-09-26T22:34:20.656Z,59.22
2018-09-26T22:36:49.112Z,59.56
2018-09-26T22:39:17.726Z,58.88
2018-09-26T22:41:46.368Z,59.89
2018-09-26T22:44:14.866Z,59.57
2018-09-26T22:46:43.324Z,59.04
2018-09-26T22:49:11.870Z,59.63
2018-09-26T22:51:39.993Z,59.73
2018-09-26T22:54:09.046Z,59.21
2018-09-26T22:56:37.656Z,59.60
2018-09-26T22:59:06.165Z,60.36
2018-09-26T23:01:34.459Z,59.65
2018-09-26T23:04:06.124Z,60.13
2018-09-26T23:06:37.705Z,60.09
2018-09-26T23:09:08.460Z,59.78
2018-09-26T23:11:37.031Z,60.26
2018-09-26T23:14:05.453Z,59.70
2018-09-26T23:16:33.887Z,59.96
2018-09-26T23:19:02.239Z,60.44
2018-09-26T23:21:31.104Z,60.75
2018-09-26T23:24:03.975Z,60.21
2018-09-26T23:26:32.138Z,60.33
2018-09-26T23:29:01.080Z,60.13
2018-09-26T23:31:29.520Z,60.66
2018-09-26T23:33:58.119Z,60.44
2018-09-26T23:36:26.904Z,60.67
2018-09-26T23:38:55.289Z,60.61
2018-09-26T23:41:24.001Z,60.41
2018-09-26T23:43:52.128Z,60.61
2018-09-26T23:46:20.852Z,60.34
2018-09-26T23:48:48.968Z,60.65
2018-09-26T23:51:17.407Z,60.08
2018-09-26T23:53:46.089Z,60.65
2018-09-26T23:56:14.532Z,60.51
2018-09-26T23:58:42.988Z,60.48
